Time;durP1;ratioP1;P1;durP2;ratioP2;P2;SDS_P1;SDS_P2;PMS_P1;PMS_P2;Temp;Humidity;BMP_temperature;BMP_pressure;BME280_temperature;BME280_humidity;BME280_pressure;Samples;Min_cycle;Max_cycle;Signal;HPM_P1;HPM_P2
2022/09/12 00:02:07;;;;;;;10.20;7.60;;;13.10;99.90;;;;;;5113955;28;20300;-40
2022/09/12 00:04:33;;;;;;;10.27;7.27;;;13.00;99.90;;;;;;5113543;28;20177;-38
2022/09/12 00:06:58;;;;;;;10.60;8.13;;;13.00;99.90;;;;;;5112331;28;20184;-40
2022/09/12 00:09:24;;;;;;;10.97;7.37;;;13.00;99.90;;;;;;5114420;28;20182;-39
2022/09/12 00:11:49;;;;;;;11.80;8.40;;;13.00;99.90;;;;;;5113717;28;20185;-40
2022/09/12 00:14:17;;;;;;;11.80;8.40;;;13.00;99.90;;;;;;5112249;28;20175;-40
2022/09/12 00:16:43;;;;;;;10.00;7.60;;;13.00;99.90;;;;;;5113498;28;20206;-40
2022/09/12 00:19:10;;;;;;;11.67;8.23;;;13.00;99.90;;;;;;5111983;28;20248;-41
2022/09/12 00:21:37;;;;;;;11.93;6.90;;;12.90;99.90;;;;;;5112448;28;20182;-39
2022/09/12 00:24:04;;;;;;;9.87;7.20;;;12.90;99.90;;;;;;5114144;28;20624;-42
2022/09/12 00:26:30;;;;;;;11.83;8.23;;;12.90;99.90;;;;;;5113686;28;20201;-40
2022/09/12 00:28:56;;;;;;;11.53;8.43;;;12.90;99.90;;;;;;5114148;28;20639;-40
2022/09/12 00:31:24;;;;;;;11.47;8.80;;;12.80;99.90;;;;;;5113330;28;20187;-40
2022/09/12 00:33:51;;;;;;;10.67;7.83;;;12.80;99.90;;;;;;5113648;28;20226;-39
2022/09/12 00:36:19;;;;;;;9.03;7.60;;;12.70;99.90;;;;;;5113464;28;20225;-39
2022/09/12 00:38:46;;;;;;;9.63;7.47;;;12.80;99.90;;;;;;5113148;28;20620;-40
2022/09/12 00:41:19;;;;;;;12.00;7.63;;;12.70;99.90;;;;;;5113423;28;20282;-38
2022/09/12 00:43:51;;;;;;;10.63;8.40;;;12.60;99.90;;;;;;5112085;28;20175;-40
2022/09/12 00:46:28;;;;;;;12.83;9.40;;;12.70;99.90;;;;;;5113165;28;20194;-41
2022/09/12 00:49:03;;;;;;;12.83;9.97;;;12.70;99.90;;;;;;5113497;28;20300;-41
2022/09/12 00:51:32;;;;;;;10.90;8.73;;;12.60;99.90;;;;;;5113369;28;20170;-41
2022/09/12 00:54:01;;;;;;;13.07;9.17;;;12.60;99.90;;;;;;5114469;28;20186;-41
2022/09/12 00:56:28;;;;;;;13.47;9.67;;;12.60;99.90;;;;;;5115353;28;20709;-39
2022/09/12 00:59:00;;;;;;;13.37;10.33;;;12.60;99.90;;;;;;5116800;28;20213;-38
2022/09/12 01:01:26;;;;;;;13.53;9.70;;;12.60;99.90;;;;;;5116888;28;20173;-38
2022/09/12 01:03:52;;;;;;;14.07;10.43;;;12.50;99.90;;;;;;5117043;28;20178;-41
2022/09/12 01:06:26;;;;;;;14.10;10.73;;;12.50;99.90;;;;;;5115395;28;20643;-38
2022/09/12 01:08:53;;;;;;;14.63;10.47;;;12.50;99.90;;;;;;5117006;28;20534;-39
2022/09/12 01:11:20;;;;;;;12.13;9.53;;;12.50;99.90;;;;;;5116672;28;20541;-40
2022/09/12 01:13:47;;;;;;;13.40;10.60;;;12.50;99.90;;;;;;5116626;28;20197;-41
2022/09/12 01:16:13;;;;;;;17.17;10.77;;;12.40;99.90;;;;;;5116762;28;20664;-38
2022/09/12 01:19:23;;;;;;;18.73;10.50;;;12.40;99.90;;;;;;5116731;28;20266;-39
2022/09/12 01:22:19;;;;;;;13.40;10.13;;;12.40;99.90;;;;;;5116863;28;20205;-37
2022/09/12 01:24:56;;;;;;;17.67;11.93;;;12.40;99.90;;;;;;5116444;28;20289;-40
2022/09/12 01:27:48;;;;;;;16.50;11.37;;;12.40;99.90;;;;;;5116499;28;20557;-38
2022/09/12 01:30:16;;;;;;;16.70;11.13;;;12.40;99.90;;;;;;5116430;28;20177;-39
2022/09/12 01:33:23;;;;;;;14.83;10.53;;;12.40;99.90;;;;;;5116160;28;20190;-42
2022/09/12 01:36:10;;;;;;;15.37;10.57;;;12.30;99.90;;;;;;5116347;28;20700;-40
2022/09/12 01:39:00;;;;;;;15.33;11.33;;;12.30;99.90;;;;;;5116312;28;20649;-39
2022/09/12 01:42:08;;;;;;;18.50;12.70;;;12.30;99.90;;;;;;5116261;28;20167;-40
2022/09/12 01:45:13;;;;;;;18.50;12.53;;;12.30;99.90;;;;;;5113492;28;20225;-41
2022/09/12 01:47:44;;;;;;;16.90;11.83;;;12.20;99.90;;;;;;5114261;28;20186;-39
2022/09/12 01:50:26;;;;;;;18.40;11.93;;;12.20;99.90;;;;;;5115921;28;20204;-40
2022/09/12 01:53:08;;;;;;;19.47;12.70;;;12.20;99.90;;;;;;5116175;28;20163;-42
2022/09/12 01:55:35;;;;;;;18.53;12.10;;;12.30;99.90;;;;;;5116140;28;20691;-44
2022/09/12 01:58:12;;;;;;;15.67;11.13;;;12.20;99.90;;;;;;5116198;28;20174;-43
2022/09/12 02:00:54;;;;;;;17.10;12.90;;;12.20;99.90;;;;;;5116197;28;20538;-39
2022/09/12 02:03:28;;;;;;;17.40;12.77;;;12.20;99.90;;;;;;5116320;28;20163;-38
2022/09/12 02:06:05;;;;;;;18.43;12.40;;;12.20;99.90;;;;;;5115593;28;20201;-41
2022/09/12 02:08:39;;;;;;;19.60;11.17;;;12.20;99.90;;;;;;5114467;28;20219;-44
2022/09/12 02:11:10;;;;;;;18.70;11.30;;;12.20;99.90;;;;;;5115995;28;20171;-40
2022/09/12 02:13:46;;;;;;;16.20;11.60;;;12.10;99.90;;;;;;5114256;28;20647;-41
2022/09/12 02:16:20;;;;;;;15.63;12.23;;;12.10;99.90;;;;;;5114304;28;20201;-39
2022/09/12 02:18:52;;;;;;;16.73;11.27;;;12.10;99.90;;;;;;5114054;28;20198;-38
2022/09/12 02:21:20;;;;;;;19.73;12.57;;;12.10;99.90;;;;;;5115645;28;20498;-38
2022/09/12 02:23:52;;;;;;;13.80;11.07;;;12.10;99.90;;;;;;5114055;28;20182;-40
2022/09/12 02:26:22;;;;;;;17.23;11.33;;;12.10;99.90;;;;;;5115447;28;20213;-37
2022/09/12 02:28:48;;;;;;;17.00;11.83;;;12.10;99.90;;;;;;5115584;28;20178;-40
2022/09/12 02:31:36;;;;;;;13.83;11.33;;;12.10;99.90;;;;;;5114699;28;20182;-41
2022/09/12 02:34:23;;;;;;;16.93;12.80;;;12.00;99.90;;;;;;5115510;28;20723;-41
2022/09/12 02:37:24;;;;;;;16.07;10.83;;;12.00;99.90;;;;;;5116087;28;20617;-38
2022/09/12 02:39:54;;;;;;;17.60;12.03;;;12.00;99.90;;;;;;5115297;28;20670;-37
2022/09/12 02:42:21;;;;;;;16.57;11.03;;;12.00;99.90;;;;;;5115115;28;20167;-37
2022/09/12 02:44:47;;;;;;;17.10;11.87;;;11.90;99.90;;;;;;5113816;28;20247;-38
2022/09/12 02:47:37;;;;;;;18.60;11.97;;;11.90;99.90;;;;;;5113427;28;20588;-38
2022/09/12 02:50:04;;;;;;;15.83;11.67;;;11.90;99.90;;;;;;5115298;28;20171;-40
2022/09/12 02:52:30;;;;;;;15.80;11.40;;;11.90;99.90;;;;;;5115239;28;20662;-37
2022/09/12 02:54:57;;;;;;;19.97;11.97;;;11.90;99.90;;;;;;5113468;28;20258;-38
2022/09/12 02:57:23;;;;;;;16.10;11.80;;;11.90;99.90;;;;;;5115110;28;20185;-39
2022/09/12 02:59:54;;;;;;;14.63;11.47;;;11.80;99.90;;;;;;5115610;28;20249;-38
2022/09/12 03:02:29;;;;;;;16.90;12.33;;;11.90;99.90;;;;;;5114007;28;20651;-40
2022/09/12 03:05:25;;;;;;;17.93;11.73;;;11.80;99.90;;;;;;5114999;28;20201;-40
2022/09/12 03:08:28;;;;;;;18.60;12.33;;;11.80;99.90;;;;;;5115011;28;20151;-45
2022/09/12 03:11:29;;;;;;;16.67;11.73;;;11.80;99.90;;;;;;5114919;28;20254;-43
2022/09/12 03:14:07;;;;;;;18.73;11.77;;;11.80;99.90;;;;;;5102771;28;20201;-40
2022/09/12 03:16:59;;;;;;;17.57;11.77;;;11.80;99.90;;;;;;5113203;28;20205;-38
2022/09/12 03:19:33;;;;;;;17.07;11.90;;;11.80;99.90;;;;;;5114399;28;20189;-39
2022/09/12 03:22:09;;;;;;;18.13;13.43;;;11.80;99.90;;;;;;5114932;28;20232;-39
2022/09/12 03:24:45;;;;;;;17.80;11.97;;;11.80;99.90;;;;;;5114863;28;20196;-37
2022/09/12 03:27:33;;;;;;;20.87;12.90;;;11.80;99.90;;;;;;5114762;28;20164;-38
2022/09/12 03:29:59;;;;;;;19.23;13.03;;;11.70;99.90;;;;;;5114173;28;20190;-37
2022/09/12 03:32:47;;;;;;;14.93;12.10;;;11.70;99.90;;;;;;5112905;28;20185;-38
2022/09/12 03:35:15;;;;;;;17.83;12.13;;;11.70;99.90;;;;;;5112972;28;20210;-37
2022/09/12 03:37:40;;;;;;;16.70;12.30;;;11.70;99.90;;;;;;5114260;28;20254;-38
2022/09/12 03:40:08;;;;;;;17.43;12.67;;;11.70;99.90;;;;;;5114088;28;20208;-37
2022/09/12 03:42:33;;;;;;;21.57;13.70;;;11.70;99.90;;;;;;5114138;28;20655;-37
2022/09/12 03:44:59;;;;;;;19.03;13.03;;;11.70;99.90;;;;;;5113832;28;20273;-38
2022/09/12 03:47:25;;;;;;;19.80;13.00;;;11.70;99.90;;;;;;5112586;28;20181;-38
2022/09/12 03:49:53;;;;;;;18.47;12.53;;;11.60;99.90;;;;;;5113803;28;20675;-37
2022/09/12 03:52:19;;;;;;;19.87;13.23;;;11.70;99.90;;;;;;5114253;28;20257;-39
2022/09/12 03:54:45;;;;;;;16.53;11.70;;;11.60;99.90;;;;;;5114072;28;20290;-36
2022/09/12 03:57:10;;;;;;;16.57;12.00;;;11.60;99.90;;;;;;5113948;28;20174;-37
2022/09/12 03:59:36;;;;;;;16.33;11.73;;;11.60;99.90;;;;;;5113659;28;20273;-37
2022/09/12 04:02:03;;;;;;;17.40;12.50;;;11.60;99.90;;;;;;5114003;28;20219;-37
2022/09/12 04:04:29;;;;;;;16.00;11.87;;;11.50;99.90;;;;;;5112324;28;20265;-39
2022/09/12 04:06:54;;;;;;;15.90;12.20;;;11.50;99.90;;;;;;5114092;28;20599;-39
2022/09/12 04:09:20;;;;;;;16.07;11.93;;;11.50;99.90;;;;;;5113653;28;20182;-37
2022/09/12 04:11:45;;;;;;;16.33;11.87;;;11.50;99.90;;;;;;5113701;28;20170;-38
2022/09/12 04:14:11;;;;;;;19.07;11.63;;;11.40;99.90;;;;;;5113819;28;20178;-38
2022/09/12 04:16:36;;;;;;;15.97;11.50;;;11.40;99.90;;;;;;5113658;28;20233;-39
2022/09/12 04:19:02;;;;;;;14.43;11.47;;;11.40;99.90;;;;;;5114058;28;20203;-39
2022/09/12 04:21:28;;;;;;;15.37;12.20;;;11.30;99.90;;;;;;5112432;28;20173;-38
2022/09/12 04:23:53;;;;;;;19.43;13.17;;;11.40;99.90;;;;;;5113689;28;20178;-38
2022/09/12 04:26:19;;;;;;;21.27;13.67;;;11.30;99.90;;;;;;5114207;28;20197;-38
2022/09/12 04:28:46;;;;;;;17.73;12.83;;;11.30;99.90;;;;;;5113573;28;20178;-39
2022/09/12 04:31:16;;;;;;;15.63;11.93;;;11.30;99.90;;;;;;5114937;28;20189;-39
2022/09/12 04:33:43;;;;;;;19.97;12.43;;;11.30;99.90;;;;;;5118581;27;20321;-37
2022/09/12 04:36:15;;;;;;;16.90;12.53;;;11.30;99.90;;;;;;5116338;28;20654;-39
2022/09/12 04:38:42;;;;;;;15.87;12.67;;;11.30;99.90;;;;;;5116603;28;20254;-39
2022/09/12 04:41:13;;;;;;;21.50;13.30;;;11.30;99.90;;;;;;5117955;28;20537;-38
2022/09/12 04:43:40;;;;;;;18.30;13.50;;;11.30;99.90;;;;;;5118684;28;20540;-37
2022/09/12 04:46:07;;;;;;;19.07;13.17;;;11.30;99.90;;;;;;5118012;28;20753;-38
2022/09/12 04:48:33;;;;;;;20.50;13.63;;;11.30;99.90;;;;;;5117787;28;20180;-40
2022/09/12 04:51:10;;;;;;;19.67;15.13;;;11.30;99.90;;;;;;5116182;28;20174;-40
2022/09/12 04:53:37;;;;;;;18.70;13.73;;;11.20;99.90;;;;;;5118954;28;20165;-37
2022/09/12 04:56:05;;;;;;;19.97;14.27;;;11.20;99.90;;;;;;5115798;28;20197;-36
2022/09/12 04:58:32;;;;;;;19.23;14.43;;;11.30;99.90;;;;;;5117313;28;20243;-38
2022/09/12 05:01:10;;;;;;;23.70;14.60;;;11.20;99.90;;;;;;5118161;28;20171;-39
2022/09/12 05:03:42;;;;;;;19.07;13.40;;;11.30;99.90;;;;;;5117358;27;20153;-39
2022/09/12 05:06:10;;;;;;;19.80;13.37;;;11.30;99.90;;;;;;5117634;28;20218;-37
2022/09/12 05:08:37;;;;;;;29.00;14.90;;;11.20;99.90;;;;;;5118253;28;20643;-39
2022/09/12 05:11:04;;;;;;;17.87;13.17;;;11.20;99.90;;;;;;5117933;28;20184;-37
2022/09/12 05:13:31;;;;;;;22.17;14.33;;;11.20;99.90;;;;;;5119225;27;20177;-39
2022/09/12 05:15:58;;;;;;;18.83;13.10;;;11.20;99.90;;;;;;5117467;28;20201;-38
2022/09/12 05:18:25;;;;;;;19.03;13.27;;;11.20;99.90;;;;;;5117170;28;20638;-40
2022/09/12 05:20:54;;;;;;;22.00;14.87;;;11.30;99.90;;;;;;5116131;28;20188;-41
2022/09/12 05:23:20;;;;;;;22.93;15.40;;;11.30;99.90;;;;;;5117263;28;20181;-38
2022/09/12 05:25:51;;;;;;;24.27;15.90;;;11.30;99.90;;;;;;5116878;28;20220;-37
2022/09/12 05:28:18;;;;;;;24.83;16.07;;;11.30;99.90;;;;;;5118088;28;20240;-43
2022/09/12 05:30:46;;;;;;;20.53;14.53;;;11.40;99.90;;;;;;5115808;28;20189;-43
2022/09/12 05:33:12;;;;;;;23.90;15.97;;;11.40;99.90;;;;;;5117522;28;20185;-43
2022/09/12 05:35:39;;;;;;;24.53;15.50;;;11.40;99.90;;;;;;5117046;28;20220;-43
2022/09/12 05:38:05;;;;;;;24.40;15.20;;;11.40;99.90;;;;;;5116799;28;20182;-44
2022/09/12 05:40:31;;;;;;;24.53;16.60;;;11.40;99.90;;;;;;5117064;28;20603;-44
2022/09/12 05:42:57;;;;;;;24.60;16.63;;;11.50;99.90;;;;;;5098133;28;20210;-43
2022/09/12 05:45:22;;;;;;;23.13;16.50;;;11.50;99.90;;;;;;5115045;28;20201;-44
2022/09/12 05:47:48;;;;;;;23.10;15.83;;;11.60;99.90;;;;;;5116880;28;20180;-44
2022/09/12 05:50:14;;;;;;;23.00;16.47;;;11.60;99.90;;;;;;5114989;28;20586;-44
2022/09/12 05:52:39;;;;;;;25.07;16.67;;;11.60;99.90;;;;;;5116212;28;20188;-43
2022/09/12 05:55:05;;;;;;;25.67;17.53;;;11.70;99.90;;;;;;5116233;28;20196;-43
2022/09/12 05:57:32;;;;;;;27.60;17.03;;;11.80;99.90;;;;;;5116146;28;20185;-43
2022/09/12 05:59:57;;;;;;;25.73;17.00;;;11.80;99.90;;;;;;5116076;28;20198;-45
2022/09/12 06:02:23;;;;;;;26.13;16.97;;;11.90;99.90;;;;;;5116000;28;20181;-45
2022/09/12 06:04:49;;;;;;;27.57;16.57;;;11.90;99.90;;;;;;5115776;27;20204;-44
2022/09/12 06:07:14;;;;;;;24.80;17.43;;;12.00;99.90;;;;;;5116161;28;20238;-45
2022/09/12 06:09:40;;;;;;;30.00;17.87;;;12.10;99.90;;;;;;5115977;28;20677;-41
2022/09/12 06:12:07;;;;;;;30.23;18.70;;;12.10;99.90;;;;;;5115748;28;20176;-44
2022/09/12 06:14:33;;;;;;;29.23;17.93;;;12.20;99.90;;;;;;5116018;28;20176;-43
2022/09/12 06:16:58;;;;;;;29.43;18.93;;;12.30;99.90;;;;;;5116000;28;20533;-42
2022/09/12 06:19:26;;;;;;;31.60;19.17;;;12.40;99.90;;;;;;5116184;28;20250;-45
2022/09/12 06:21:52;;;;;;;34.40;20.87;;;12.50;99.90;;;;;;5120684;28;20173;-37
2022/09/12 06:24:19;;;;;;;31.87;18.57;;;12.60;99.90;;;;;;5115549;28;20245;-37
2022/09/12 06:26:46;;;;;;;31.97;19.33;;;12.70;99.90;;;;;;5115596;28;20271;-38
2022/09/12 06:29:12;;;;;;;36.03;21.00;;;12.80;99.90;;;;;;5115741;28;20185;-38
2022/09/12 06:31:40;;;;;;;34.93;20.93;;;12.90;99.90;;;;;;5114601;28;20267;-39
2022/09/12 06:34:07;;;;;;;33.80;19.23;;;13.00;99.90;;;;;;5116288;28;20188;-41
2022/09/12 06:36:39;;;;;;;39.27;20.30;;;13.10;99.90;;;;;;5115848;28;20208;-40
2022/09/12 06:39:09;;;;;;;40.27;21.93;;;13.20;99.90;;;;;;5115775;28;20189;-40
2022/09/12 06:41:34;;;;;;;34.17;20.50;;;13.30;99.90;;;;;;5115461;28;20174;-40
2022/09/12 06:44:08;;;;;;;31.67;19.93;;;13.40;99.90;;;;;;5115069;28;20178;-38
2022/09/12 06:46:34;;;;;;;32.27;18.43;;;13.50;99.90;;;;;;5113983;28;20208;-38
2022/09/12 06:49:00;;;;;;;30.47;19.20;;;13.60;99.90;;;;;;5115348;28;20177;-39
2022/09/12 06:51:27;;;;;;;33.30;19.23;;;13.70;99.90;;;;;;5115084;28;20655;-40
2022/09/12 06:53:56;;;;;;;39.13;21.33;;;13.80;99.90;;;;;;5114424;28;20204;-39
2022/09/12 06:56:24;;;;;;;31.17;19.80;;;13.80;99.90;;;;;;5114841;28;20229;-39
2022/09/12 06:58:51;;;;;;;34.33;19.90;;;13.90;99.90;;;;;;5115498;28;20201;-40
2022/09/12 07:01:21;;;;;;;37.13;21.43;;;14.00;99.90;;;;;;5116549;28;20177;-39
2022/09/12 07:03:50;;;;;;;37.93;19.87;;;14.10;99.90;;;;;;5098015;28;20644;-39
2022/09/12 07:06:18;;;;;;;32.37;20.00;;;14.20;99.90;;;;;;5114880;28;20186;-39
2022/09/12 07:08:44;;;;;;;35.13;19.07;;;14.30;99.90;;;;;;5114359;28;20190;-40
2022/09/12 07:11:13;;;;;;;34.17;19.40;;;14.50;99.90;;;;;;5116299;28;20181;-40
2022/09/12 07:13:41;;;;;;;31.83;19.83;;;14.60;99.90;;;;;;5116333;28;20174;-41
2022/09/12 07:16:11;;;;;;;32.90;20.17;;;14.70;99.90;;;;;;5116069;28;20193;-38
2022/09/12 07:18:38;;;;;;;35.60;19.37;;;14.90;99.90;;;;;;5114265;28;20170;-38
2022/09/12 07:21:08;;;;;;;31.10;18.70;;;15.00;99.90;;;;;;5115904;28;20256;-40
2022/09/12 07:23:34;;;;;;;29.77;18.43;;;15.10;99.90;;;;;;5116752;28;20174;-40
2022/09/12 07:26:00;;;;;;;29.77;17.80;;;15.20;99.90;;;;;;5118154;28;20232;-40
2022/09/12 07:28:29;;;;;;;29.63;16.77;;;15.30;99.90;;;;;;5116469;28;20189;-41
2022/09/12 07:30:55;;;;;;;30.90;18.67;;;15.30;99.90;;;;;;5116502;28;20196;-39
2022/09/12 07:33:22;;;;;;;24.93;17.33;;;15.40;99.90;;;;;;5114023;28;20252;-40
2022/09/12 07:35:48;;;;;;;28.13;17.67;;;15.50;99.90;;;;;;5116110;28;20190;-40
2022/09/12 07:38:16;;;;;;;30.87;17.33;;;15.50;99.90;;;;;;5114891;28;20190;-41
2022/09/12 07:40:43;;;;;;;27.17;17.10;;;15.60;99.90;;;;;;5115115;28;20552;-40
2022/09/12 07:43:09;;;;;;;22.90;16.47;;;15.70;99.90;;;;;;5115894;28;20647;-42
2022/09/12 07:45:35;;;;;;;24.17;14.97;;;15.70;99.90;;;;;;5114490;28;20209;-44
2022/09/12 07:48:00;;;;;;;23.93;15.93;;;15.80;99.90;;;;;;5113062;28;20178;-44
2022/09/12 07:50:26;;;;;;;26.53;15.30;;;15.80;99.90;;;;;;5114419;28;20208;-45
2022/09/12 07:52:54;;;;;;;21.10;14.83;;;15.90;99.90;;;;;;5114193;28;20186;-45
2022/09/12 07:55:23;;;;;;;27.43;16.13;;;16.00;99.90;;;;;;5112836;28;20622;-44
2022/09/12 07:57:50;;;;;;;25.77;16.03;;;16.10;99.90;;;;;;5113879;28;20184;-44
2022/09/12 08:00:16;;;;;;;25.97;15.53;;;16.10;99.90;;;;;;5114102;27;20668;-43
2022/09/12 08:02:42;;;;;;;23.80;14.63;;;16.20;99.90;;;;;;5114569;28;20268;-43
2022/09/12 08:05:08;;;;;;;21.73;14.53;;;16.20;99.90;;;;;;5113688;28;20634;-42
2022/09/12 08:07:34;;;;;;;22.33;15.07;;;16.20;99.90;;;;;;5113734;28;20574;-43
2022/09/12 08:09:59;;;;;;;23.67;16.03;;;16.30;99.90;;;;;;5112763;28;20237;-43
2022/09/12 08:12:27;;;;;;;22.37;14.60;;;16.30;99.90;;;;;;5112638;28;20247;-44
2022/09/12 08:14:52;;;;;;;19.93;13.17;;;16.30;99.90;;;;;;5113804;28;20210;-43
2022/09/12 08:17:18;;;;;;;23.27;14.87;;;16.40;99.90;;;;;;5114191;28;20285;-39
2022/09/12 08:19:44;;;;;;;25.20;13.50;;;16.40;99.90;;;;;;5113704;28;20198;-39
2022/09/12 08:22:10;;;;;;;21.13;14.60;;;16.50;99.90;;;;;;5114641;28;20201;-39
2022/09/12 08:24:38;;;;;;;25.20;15.13;;;16.70;99.90;;;;;;5113969;28;20194;-39
2022/09/12 08:27:04;;;;;;;19.47;13.43;;;16.80;99.90;;;;;;5113801;28;20286;-40
2022/09/12 08:29:30;;;;;;;18.87;13.27;;;17.00;99.90;;;;;;5113718;28;20186;-40
2022/09/12 08:31:55;;;;;;;22.20;13.07;;;17.10;99.90;;;;;;5115052;28;20228;-38
2022/09/12 08:34:21;;;;;;;20.50;12.60;;;17.30;99.90;;;;;;5114582;28;20597;-38
2022/09/12 08:36:47;;;;;;;20.57;13.53;;;17.40;99.90;;;;;;5115032;28;20292;-38
2022/09/12 08:39:13;;;;;;;18.30;12.83;;;17.50;99.90;;;;;;5114523;28;20206;-38
2022/09/12 08:42:02;;;;;;;22.23;13.93;;;17.70;99.90;;;;;;5113333;28;20178;-40
2022/09/12 08:44:34;;;;;;;17.97;12.73;;;17.90;99.90;;;;;;5112099;28;20177;-37
2022/09/12 08:47:21;;;;;;;16.37;12.20;;;18.00;99.90;;;;;;5113667;28;20158;-38
2022/09/12 08:49:47;;;;;;;24.50;12.97;;;18.20;99.90;;;;;;5113689;28;20174;-39
2022/09/12 08:52:32;;;;;;;22.77;13.23;;;18.30;99.90;;;;;;5113574;28;20522;-38
2022/09/12 08:54:59;;;;;;;16.40;11.10;;;18.40;99.90;;;;;;5113399;28;20194;-40
2022/09/12 08:57:24;;;;;;;20.83;11.70;;;18.60;99.90;;;;;;5114346;28;20178;-41
2022/09/12 08:59:51;;;;;;;16.70;10.70;;;18.80;99.90;;;;;;5111894;28;20213;-37
2022/09/12 09:02:23;;;;;;;15.23;10.43;;;18.90;99.90;;;;;;5113441;28;20212;-38
2022/09/12 09:05:10;;;;;;;12.93;9.63;;;19.10;99.90;;;;;;5112266;28;20197;-38
2022/09/12 09:07:54;;;;;;;13.87;10.20;;;19.20;99.90;;;;;;5113736;28;20169;-38
2022/09/12 09:10:48;;;;;;;13.87;9.43;;;19.40;99.90;;;;;;5113744;28;20165;-37
2022/09/12 09:14:46;;;;;;;16.70;9.03;;;19.60;99.90;;;;;;5113421;28;20639;-38
2022/09/12 09:16:06;;;;;;;10.27;8.40;;;19.70;99.90;;;;;;5113166;28;20202;-38
2022/09/12 09:18:37;;;;;;;13.83;9.07;;;19.90;99.90;;;;;;5116881;28;20170;-40
2022/09/12 09:21:20;;;;;;;14.53;8.53;;;20.00;99.90;;;;;;5116832;28;20701;-39
2022/09/12 09:23:51;;;;;;;9.33;7.40;;;20.10;99.90;;;;;;5117195;28;20151;-41
2022/09/12 09:26:26;;;;;;;6.97;6.00;;;20.10;99.90;;;;;;5116784;28;20251;-40
2022/09/12 09:29:01;;;;;;;12.13;6.60;;;20.30;99.90;;;;;;5116895;28;20173;-40
2022/09/12 09:31:34;;;;;;;9.80;7.10;;;20.40;99.90;;;;;;5115564;28;20192;-38
2022/09/12 09:34:00;;;;;;;9.13;6.10;;;20.50;99.90;;;;;;5116403;28;20178;-39
2022/09/12 09:37:04;;;;;;;8.37;6.50;;;20.60;99.90;;;;;;5116820;28;20206;-41
2022/09/12 09:39:57;;;;;;;12.80;7.97;;;20.80;99.90;;;;;;5116779;28;20198;-42
2022/09/12 09:42:35;;;;;;;11.43;7.47;;;20.90;99.90;;;;;;5115324;28;20525;-39
2022/09/12 09:45:10;;;;;;;11.77;5.90;;;21.10;99.90;;;;;;5116506;28;20189;-39
2022/09/12 09:47:36;;;;;;;12.40;7.03;;;21.10;99.90;;;;;;5116577;28;20162;-40
2022/09/12 09:50:02;;;;;;;10.00;7.27;;;21.30;99.90;;;;;;5116784;28;20712;-41
2022/09/12 09:52:29;;;;;;;9.70;7.07;;;21.40;99.90;;;;;;5116243;27;20174;-39
2022/09/12 09:54:58;;;;;;;12.00;7.37;;;21.50;99.90;;;;;;5116341;28;20194;-40
2022/09/12 09:57:40;;;;;;;20.10;6.80;;;21.60;99.90;;;;;;5116105;28;20551;-41
2022/09/12 10:00:34;;;;;;;9.77;6.13;;;21.70;99.90;;;;;;5116012;28;20209;-41
2022/09/12 10:03:23;;;;;;;7.17;5.03;;;21.70;99.90;;;;;;5116501;28;20237;-39
2022/09/12 10:05:52;;;;;;;10.17;7.10;;;21.80;99.90;;;;;;5115080;28;20217;-40
2022/09/12 10:08:34;;;;;;;8.50;5.80;;;21.90;99.90;;;;;;5115807;28;20536;-39
2022/09/12 10:11:14;;;;;;;7.83;5.53;;;22.00;99.90;;;;;;5116461;28;20159;-41
2022/09/12 10:13:51;;;;;;;5.10;4.60;;;22.10;99.90;;;;;;5115188;28;20193;-40
2022/09/12 10:16:21;;;;;;;6.87;4.70;;;22.20;99.90;;;;;;5115943;28;20246;-40
2022/09/12 10:18:49;;;;;;;5.43;3.90;;;22.30;99.90;;;;;;5115863;27;20166;-39
2022/09/12 10:21:32;;;;;;;7.23;4.27;;;22.50;99.90;;;;;;5115857;28;20174;-39
2022/09/12 10:24:18;;;;;;;9.57;4.60;;;22.60;99.90;;;;;;5115614;28;20147;-41
2022/09/12 10:26:53;;;;;;;7.53;4.53;;;22.70;99.90;;;;;;5111291;27;20210;-41
2022/09/12 10:29:30;;;;;;;6.77;3.87;;;22.70;99.90;;;;;;5114488;28;20154;-40
2022/09/12 10:32:00;;;;;;;8.53;4.70;;;22.80;99.90;;;;;;5115816;28;20569;-40
2022/09/12 10:34:41;;;;;;;4.50;4.07;;;23.00;99.90;;;;;;5115159;27;20176;-39
2022/09/12 10:37:09;;;;;;;3.47;3.13;;;23.10;99.90;;;;;;5115739;28;20169;-42
2022/09/12 10:39:37;;;;;;;4.70;3.43;;;23.20;99.90;;;;;;5115140;28;20250;-40
2022/09/12 10:42:04;;;;;;;5.63;3.23;;;23.30;99.90;;;;;;5115117;27;20215;-40
2022/09/12 10:44:33;;;;;;;5.90;4.23;;;23.50;99.90;;;;;;5114098;28;20178;-41
2022/09/12 10:47:18;;;;;;;5.00;3.90;;;23.60;99.90;;;;;;5115479;28;20202;-42
2022/09/12 10:49:43;;;;;;;5.47;3.60;;;23.70;99.90;;;;;;5115310;28;20203;-42
2022/09/12 10:52:35;;;;;;;4.70;4.03;;;23.80;99.90;;;;;;5115553;28;20179;-41
2022/09/12 10:55:01;;;;;;;4.70;3.63;;;23.80;99.90;;;;;;5113787;28;20271;-41
2022/09/12 10:57:52;;;;;;;5.23;2.97;;;23.90;99.90;;;;;;5115164;28;20182;-40
2022/09/12 11:00:26;;;;;;;4.77;3.10;;;24.00;99.90;;;;;;5115020;28;20609;-40
2022/09/12 11:03:21;;;;;;;3.93;3.13;;;24.10;99.90;;;;;;5115492;28;20166;-42
2022/09/12 11:06:00;;;;;;;4.10;2.80;;;24.20;99.90;;;;;;5112079;28;20206;-41
2022/09/12 11:09:05;;;;;;;4.07;2.90;;;24.40;99.90;;;;;;5114776;28;20170;-41
2022/09/12 11:11:48;;;;;;;3.07;2.50;;;24.50;99.90;;;;;;5115044;28;20253;-41
2022/09/12 11:14:35;;;;;;;3.13;2.77;;;24.50;99.90;;;;;;5115087;28;20566;-42
2022/09/12 11:17:16;;;;;;;3.03;2.63;;;24.70;99.90;;;;;;5115605;28;20162;-41
2022/09/12 11:19:49;;;;;;;2.20;2.00;;;24.70;99.90;;;;;;5115818;28;20204;-40
2022/09/12 11:23:01;;;;;;;4.97;2.30;;;24.80;99.90;;;;;;5114773;28;20637;-41
2022/09/12 11:25:49;;;;;;;4.23;2.83;;;24.90;99.90;;;;;;5099559;28;20374;-40
2022/09/12 11:28:34;;;;;;;2.70;2.47;;;25.00;99.90;;;;;;5114951;28;20185;-41
2022/09/12 11:31:06;;;;;;;3.83;3.13;;;25.10;99.90;;;;;;5114754;28;20561;-41
2022/09/12 11:33:34;;;;;;;5.60;2.60;;;25.10;99.90;;;;;;5114358;28;20178;-44
2022/09/12 11:36:06;;;;;;;5.63;3.77;;;25.20;99.90;;;;;;5111856;28;20198;-42
2022/09/12 11:38:31;;;;;;;3.70;3.40;;;25.20;99.90;;;;;;5113718;28;20159;-42
2022/09/12 11:41:12;;;;;;;6.60;3.77;;;25.30;99.90;;;;;;5113984;28;20231;-42
2022/09/12 11:43:41;;;;;;;3.60;3.30;;;25.30;99.90;;;;;;5113929;28;20170;-43
2022/09/12 11:46:20;;;;;;;6.13;3.23;;;25.30;99.90;;;;;;5114362;28;20282;-39
2022/09/12 11:49:23;;;;;;;4.20;3.07;;;25.30;99.90;;;;;;5114351;28;20166;-41
2022/09/12 11:52:33;;;;;;;4.60;3.90;;;25.50;99.90;;;;;;5091635;28;20190;-41
2022/09/12 11:55:06;;;;;;;4.10;3.30;;;25.60;99.90;;;;;;5091758;28;20575;-41
2022/09/12 11:57:55;;;;;;;3.40;3.10;;;25.70;99.90;;;;;;5091303;28;20664;-40
2022/09/12 12:00:22;;;;;;;2.87;2.63;;;25.80;99.90;;;;;;5106057;28;20312;-39
2022/09/12 12:03:10;;;;;;;4.57;2.93;;;26.00;99.90;;;;;;5113650;28;20278;-39
2022/09/12 12:05:53;;;;;;;3.00;2.63;;;26.10;99.90;;;;;;5113687;28;20213;-41
2022/09/12 12:08:22;;;;;;;4.88;2.92;;;26.20;99.90;;;;;;5113956;28;20253;-38
2022/09/12 12:10:55;;;;;;;4.07;2.23;;;26.40;99.90;;;;;;5114024;28;20635;-41
2022/09/12 12:13:29;;;;;;;4.63;2.47;;;26.40;99.90;;;;;;5113859;28;20235;-42
2022/09/12 12:16:20;;;;;;;4.57;2.73;;;26.40;99.90;;;;;;5112195;28;20201;-40
2022/09/12 12:18:56;;;;;;;4.40;2.70;;;26.50;99.90;;;;;;5110618;28;20269;-39
2022/09/12 12:21:28;;;;;;;3.20;2.45;;;26.60;99.90;;;;;;5113557;28;20569;-41
2022/09/12 12:24:11;;;;;;;3.40;2.33;;;26.50;99.90;;;;;;5113706;28;20562;-42
2022/09/12 12:26:40;;;;;;;3.10;2.50;;;26.50;99.90;;;;;;5113881;28;20209;-40
2022/09/12 12:29:20;;;;;;;2.42;2.03;;;26.60;99.90;;;;;;5112690;28;20231;-43
2022/09/12 12:32:04;;;;;;;2.00;1.80;;;26.70;99.90;;;;;;5112205;28;20693;-40
2022/09/12 12:34:34;;;;;;;3.58;1.90;;;26.80;99.90;;;;;;5111930;28;20181;-39
2022/09/12 12:37:18;;;;;;;3.42;2.10;;;26.70;99.90;;;;;;5113319;28;20179;-42
2022/09/12 12:39:46;;;;;;;3.20;2.00;;;26.80;99.90;;;;;;5113587;28;20206;-40
2022/09/12 12:42:31;;;;;;;4.53;1.77;;;26.90;99.90;;;;;;5114079;28;20186;-40
2022/09/12 12:44:58;;;;;;;4.25;2.55;;;27.00;99.90;;;;;;5111978;28;20206;-40
2022/09/12 12:47:36;;;;;;;3.03;1.88;;;27.10;99.90;;;;;;5113543;28;20231;-39
2022/09/12 12:50:10;;;;;;;2.38;2.03;;;27.20;99.90;;;;;;5113161;28;20703;-40
2022/09/12 12:52:50;;;;;;;2.15;1.95;;;27.30;99.90;;;;;;5115617;28;20170;-41
2022/09/12 12:55:32;;;;;;;5.53;1.90;;;27.40;99.90;;;;;;5117452;28;20190;-40
2022/09/12 12:58:04;;;;;;;1.80;1.70;;;27.40;99.90;;;;;;5116278;28;20169;-42
2022/09/12 13:00:35;;;;;;;3.55;1.90;;;27.40;99.90;;;;;;5117508;27;20636;-40
2022/09/12 13:03:21;;;;;;;1.77;1.67;;;27.50;99.90;;;;;;5117398;28;20685;-44